Time;durP1;ratioP1;P1;durP2;ratioP2;P2;SDS_P1;SDS_P2;PMS_P1;PMS_P2;Temp;Humidity;BMP_temperature;BMP_pressure;BME280_temperature;BME280_humidity;BME280_pressure;Samples;Min_cycle;Max_cycle;Signal;HPM_P1;HPM_P2
2023/08/30 00:01:08;;;;;;;1.70;1.20;;;14.70;99.90;;;;;;5114283;28;20831;-60
2023/08/30 00:03:36;;;;;;;1.73;1.20;;;14.70;99.90;;;;;;5112904;27;20433;-60
2023/08/30 00:06:06;;;;;;;1.80;1.15;;;14.70;99.90;;;;;;5134254;27;20534;-61
2023/08/30 00:08:33;;;;;;;1.70;1.20;;;14.70;99.90;;;;;;5131758;27;20415;-60
2023/08/30 00:11:04;;;;;;;1.60;1.38;;;14.70;99.90;;;;;;5131946;27;20402;-60
2023/08/30 00:13:32;;;;;;;3.00;1.20;;;14.80;99.90;;;;;;5130101;27;20426;-60
2023/08/30 00:15:59;;;;;;;2.00;1.30;;;14.80;99.90;;;;;;5132361;27;20469;-61
2023/08/30 00:18:26;;;;;;;1.50;1.20;;;14.90;99.90;;;;;;5114969;28;20432;-60
2023/08/30 00:20:53;;;;;;;2.30;1.40;;;14.80;99.90;;;;;;5117547;27;20728;-60
2023/08/30 00:23:20;;;;;;;2.10;1.42;;;14.60;99.90;;;;;;5116645;27;20620;-60
2023/08/30 00:25:47;;;;;;;2.40;1.52;;;14.50;99.90;;;;;;5115414;28;20427;-60
2023/08/30 00:28:15;;;;;;;2.22;1.80;;;14.40;99.90;;;;;;5115491;28;20511;-60
2023/08/30 00:30:43;;;;;;;2.60;1.40;;;14.40;99.90;;;;;;5121087;27;20441;-60
2023/08/30 00:33:10;;;;;;;2.40;1.40;;;14.40;99.90;;;;;;5136210;27;20422;-60
2023/08/30 00:35:37;;;;;;;2.10;1.40;;;14.40;99.90;;;;;;5127905;27;20431;-60
2023/08/30 00:38:04;;;;;;;2.50;1.88;;;14.40;99.90;;;;;;5116152;28;20405;-60
2023/08/30 00:40:39;;;;;;;3.00;1.70;;;14.40;99.90;;;;;;5118376;27;20424;-60
2023/08/30 00:43:06;;;;;;;1.83;1.50;;;14.30;99.90;;;;;;5136250;27;20438;-60
2023/08/30 00:45:38;;;;;;;2.00;1.58;;;14.20;99.90;;;;;;5128531;27;20485;-60
2023/08/30 00:48:06;;;;;;;2.40;1.30;;;14.30;99.90;;;;;;5113668;28;20728;-60
2023/08/30 00:50:33;;;;;;;2.27;1.43;;;14.30;99.90;;;;;;5119468;28;20420;-60
2023/08/30 00:53:05;;;;;;;1.60;1.30;;;14.30;99.90;;;;;;5114813;28;20412;-60
2023/08/30 00:55:32;;;;;;;1.60;1.30;;;14.30;99.90;;;;;;5126733;28;20460;-60
2023/08/30 00:58:00;;;;;;;1.70;1.30;;;14.30;99.90;;;;;;5135718;28;20454;-60
2023/08/30 01:00:28;;;;;;;1.70;1.52;;;14.30;99.90;;;;;;5127787;28;20430;-60
2023/08/30 01:02:57;;;;;;;1.70;1.40;;;14.30;99.90;;;;;;5134058;28;20849;-59
2023/08/30 01:05:24;;;;;;;2.78;1.50;;;14.30;99.90;;;;;;5129349;28;20833;-59
2023/08/30 01:07:52;;;;;;;1.88;1.50;;;14.30;99.90;;;;;;5134113;28;20427;-60
2023/08/30 01:10:21;;;;;;;2.00;1.20;;;14.40;99.90;;;;;;5128798;28;20430;-60
2023/08/30 01:12:50;;;;;;;2.30;1.50;;;14.40;99.90;;;;;;5134433;28;20509;-60
2023/08/30 01:15:20;;;;;;;1.77;1.10;;;14.40;99.90;;;;;;5121856;27;20835;-60
2023/08/30 01:17:49;;;;;;;2.80;1.40;;;14.50;99.90;;;;;;5118553;28;20420;-60
2023/08/30 01:20:22;;;;;;;1.70;1.30;;;14.60;99.90;;;;;;5134864;27;20425;-60
2023/08/30 01:22:58;;;;;;;1.90;1.50;;;14.60;99.90;;;;;;5137857;27;20461;-60
2023/08/30 01:25:41;;;;;;;1.92;1.30;;;14.50;99.90;;;;;;5121011;27;20427;-60
2023/08/30 01:28:10;;;;;;;3.10;1.30;;;14.50;99.90;;;;;;5122179;27;20430;-60
2023/08/30 01:30:42;;;;;;;1.40;1.10;;;14.60;99.90;;;;;;5119360;28;20416;-60
2023/08/30 01:33:09;;;;;;;2.50;1.20;;;14.50;99.90;;;;;;5121175;27;20430;-60
2023/08/30 01:35:37;;;;;;;1.38;1.20;;;14.50;99.90;;;;;;5139750;27;20406;-60
2023/08/30 01:38:06;;;;;;;1.50;1.20;;;14.50;99.90;;;;;;5131777;27;20834;-61
2023/08/30 01:40:37;;;;;;;1.50;1.25;;;14.50;99.90;;;;;;5117995;28;20523;-60
2023/08/30 01:43:06;;;;;;;1.40;1.13;;;14.60;99.90;;;;;;5117904;27;20862;-60
2023/08/30 01:45:37;;;;;;;1.50;1.10;;;14.50;99.90;;;;;;5118049;28;20522;-60
2023/08/30 01:48:07;;;;;;;1.67;1.20;;;14.50;99.90;;;;;;5119014;27;20428;-60
2023/08/30 01:50:35;;;;;;;1.60;1.20;;;14.50;99.90;;;;;;5118248;28;20412;-60
2023/08/30 01:53:03;;;;;;;1.70;1.23;;;14.50;99.90;;;;;;5124100;27;20419;-60
2023/08/30 01:55:32;;;;;;;2.10;1.30;;;14.40;99.90;;;;;;5139264;27;20421;-60
2023/08/30 01:57:59;;;;;;;1.50;1.10;;;14.40;99.90;;;;;;5129508;27;20428;-60
2023/08/30 02:00:26;;;;;;;1.60;1.10;;;14.40;99.90;;;;;;5118541;28;20836;-60
2023/08/30 02:02:55;;;;;;;1.70;1.20;;;14.40;99.90;;;;;;5127763;27;20423;-60
2023/08/30 02:05:22;;;;;;;1.90;1.10;;;14.30;99.90;;;;;;5138787;27;20407;-60
2023/08/30 02:07:56;;;;;;;1.48;1.10;;;14.30;99.90;;;;;;5124525;27;20739;-60
2023/08/30 02:10:27;;;;;;;1.20;1.08;;;14.40;99.90;;;;;;5116381;28;20991;-60
2023/08/30 02:12:56;;;;;;;2.20;1.10;;;14.40;99.90;;;;;;5120829;27;20427;-60
2023/08/30 02:15:26;;;;;;;1.70;1.10;;;14.40;99.90;;;;;;5118930;27;20428;-60
2023/08/30 02:17:56;;;;;;;2.30;1.00;;;14.40;99.90;;;;;;5118023;27;20434;-60
2023/08/30 02:20:23;;;;;;;1.60;1.10;;;14.30;99.90;;;;;;5115836;28;20423;-60
2023/08/30 02:22:50;;;;;;;1.50;1.20;;;14.40;99.90;;;;;;5114656;28;20431;-60
2023/08/30 02:25:18;;;;;;;1.40;1.00;;;14.30;99.90;;;;;;5116091;28;20426;-60
2023/08/30 02:27:45;;;;;;;1.40;1.00;;;14.40;99.90;;;;;;5114141;28;20440;-60
2023/08/30 02:30:12;;;;;;;1.35;1.10;;;14.40;99.90;;;;;;5114184;27;21011;-60
2023/08/30 02:32:39;;;;;;;1.70;1.10;;;14.30;99.90;;;;;;5133137;27;20566;-60
2023/08/30 02:35:09;;;;;;;1.60;1.10;;;14.20;99.90;;;;;;5129959;27;20428;-61
2023/08/30 02:37:35;;;;;;;1.73;1.10;;;14.20;99.90;;;;;;5118224;28;20423;-60
2023/08/30 02:40:02;;;;;;;1.70;1.13;;;14.10;99.90;;;;;;5117663;27;20424;-60
2023/08/30 02:42:29;;;;;;;1.50;1.27;;;14.00;99.90;;;;;;5116444;28;20720;-60
2023/08/30 02:44:57;;;;;;;1.48;1.17;;;14.00;99.90;;;;;;5118102;27;20632;-60
2023/08/30 02:47:24;;;;;;;1.80;1.20;;;14.00;99.90;;;;;;5115144;28;20435;-60
2023/08/30 02:49:51;;;;;;;1.30;1.00;;;14.00;99.90;;;;;;5118618;27;20415;-60
2023/08/30 02:52:20;;;;;;;1.70;1.10;;;13.90;99.90;;;;;;5136224;27;20419;-60
2023/08/30 02:54:47;;;;;;;2.85;1.73;;;13.90;99.90;;;;;;5124755;27;20439;-60
2023/08/30 02:57:14;;;;;;;1.80;1.30;;;13.80;99.90;;;;;;5115797;28;20424;-60
2023/08/30 02:59:41;;;;;;;1.88;1.35;;;13.80;99.90;;;;;;5122450;27;20430;-60
2023/08/30 03:02:08;;;;;;;3.90;1.20;;;13.90;99.90;;;;;;5137740;27;20528;-60
2023/08/30 03:04:35;;;;;;;1.60;1.00;;;14.00;99.90;;;;;;5127311;27;20438;-58
2023/08/30 03:07:02;;;;;;;1.88;1.35;;;14.00;99.90;;;;;;5117358;28;20432;-58
2023/08/30 03:09:31;;;;;;;2.08;1.20;;;14.00;99.90;;;;;;5125794;27;20424;-58
2023/08/30 03:11:58;;;;;;;2.58;1.38;;;13.90;99.90;;;;;;5138614;27;20433;-58
2023/08/30 03:14:25;;;;;;;2.33;1.20;;;13.80;99.90;;;;;;5134091;27;20426;-59
2023/08/30 03:16:52;;;;;;;1.83;1.30;;;13.80;99.90;;;;;;5136484;27;20406;-57
2023/08/30 03:19:19;;;;;;;2.40;1.83;;;13.70;99.90;;;;;;5131342;27;20449;-57
2023/08/30 03:21:46;;;;;;;2.25;1.40;;;13.60;99.90;;;;;;5136589;27;20426;-57
2023/08/30 03:24:15;;;;;;;2.30;1.60;;;13.70;99.90;;;;;;5129304;27;20884;-57
2023/08/30 03:26:45;;;;;;;3.00;1.60;;;13.70;99.90;;;;;;5135489;27;20426;-57
2023/08/30 03:29:12;;;;;;;3.00;1.50;;;13.70;99.90;;;;;;5130294;27;20860;-58
2023/08/30 03:31:39;;;;;;;2.40;1.90;;;13.80;99.90;;;;;;5135216;27;20438;-58
2023/08/30 03:34:06;;;;;;;2.00;1.40;;;13.80;99.90;;;;;;5131432;27;20437;-58
2023/08/30 03:36:33;;;;;;;1.77;1.40;;;14.00;99.90;;;;;;5134301;27;20418;-58
2023/08/30 03:39:00;;;;;;;2.90;1.40;;;13.90;99.90;;;;;;5118967;28;20732;-57
2023/08/30 03:41:27;;;;;;;2.50;1.60;;;13.90;99.90;;;;;;5116026;28;20431;-57
2023/08/30 03:43:56;;;;;;;2.27;1.50;;;13.90;99.90;;;;;;5132544;27;20889;-57
2023/08/30 03:46:23;;;;;;;2.50;1.40;;;13.90;99.90;;;;;;5133841;27;20435;-57
2023/08/30 03:48:50;;;;;;;3.85;1.90;;;13.90;99.90;;;;;;5115677;27;20428;-58
2023/08/30 03:51:16;;;;;;;2.28;1.60;;;13.80;99.90;;;;;;5118448;27;20434;-57
2023/08/30 03:53:43;;;;;;;2.10;1.58;;;13.90;99.90;;;;;;5136314;27;20512;-57
2023/08/30 03:56:10;;;;;;;2.22;1.40;;;14.00;99.90;;;;;;5129349;27;20428;-57
2023/08/30 03:58:37;;;;;;;2.00;1.50;;;14.00;99.90;;;;;;5135853;27;20414;-57
2023/08/30 04:01:07;;;;;;;2.28;1.60;;;14.00;99.90;;;;;;5129367;27;20501;-58
2023/08/30 04:03:34;;;;;;;2.30;1.50;;;14.00;99.90;;;;;;5135731;27;20517;-59
2023/08/30 04:06:01;;;;;;;2.40;1.50;;;14.00;99.90;;;;;;5127713;27;20433;-57
2023/08/30 04:08:29;;;;;;;1.88;1.55;;;14.10;99.90;;;;;;5132493;27;20499;-57
2023/08/30 04:10:56;;;;;;;1.63;1.50;;;14.00;99.90;;;;;;5126439;27;20424;-59
2023/08/30 04:13:23;;;;;;;2.10;1.77;;;14.00;99.90;;;;;;5112248;28;20428;-59
2023/08/30 04:15:50;;;;;;;2.70;1.85;;;14.00;99.90;;;;;;5116898;27;20568;-58
2023/08/30 04:18:19;;;;;;;2.75;1.58;;;14.10;99.90;;;;;;5113060;28;20424;-58
2023/08/30 04:20:47;;;;;;;2.22;1.70;;;14.10;99.90;;;;;;5113198;28;20427;-57
2023/08/30 04:23:14;;;;;;;2.50;2.10;;;14.00;99.90;;;;;;5114591;28;20807;-57
2023/08/30 04:25:41;;;;;;;2.20;2.00;;;14.00;99.90;;;;;;5113573;28;20439;-57
2023/08/30 04:28:09;;;;;;;3.42;1.67;;;13.90;99.90;;;;;;5114341;28;20428;-56
2023/08/30 04:30:37;;;;;;;2.33;1.70;;;13.90;99.90;;;;;;5118350;27;20420;-59
2023/08/30 04:33:05;;;;;;;2.30;1.58;;;13.90;99.90;;;;;;5113058;28;20459;-58
2023/08/30 04:35:33;;;;;;;2.50;1.90;;;13.90;99.90;;;;;;5113680;27;20439;-59
2023/08/30 04:38:01;;;;;;;2.03;1.52;;;13.90;99.90;;;;;;5113392;28;20412;-58
2023/08/30 04:40:30;;;;;;;2.15;1.42;;;13.90;99.90;;;;;;5124833;27;20426;-56
2023/08/30 04:42:57;;;;;;;2.70;1.70;;;13.90;99.90;;;;;;5131757;27;20838;-58
2023/08/30 04:45:24;;;;;;;4.70;2.20;;;13.90;99.90;;;;;;5126403;27;20431;-58
2023/08/30 04:47:52;;;;;;;2.80;1.90;;;13.90;99.90;;;;;;5131890;27;20466;-59
2023/08/30 04:50:19;;;;;;;3.30;2.58;;;13.80;99.90;;;;;;5128210;27;20426;-57
2023/08/30 04:52:48;;;;;;;2.30;1.92;;;13.90;99.90;;;;;;5131435;27;20410;-58
2023/08/30 04:55:15;;;;;;;4.20;1.92;;;13.90;99.90;;;;;;5130441;28;20437;-58
2023/08/30 04:57:44;;;;;;;3.10;2.00;;;13.90;99.90;;;;;;5132103;28;20435;-59
2023/08/30 05:00:12;;;;;;;4.40;2.10;;;13.90;99.90;;;;;;5129592;28;20494;-58
2023/08/30 05:02:40;;;;;;;3.20;2.00;;;13.90;99.90;;;;;;5129320;28;20436;-59
2023/08/30 05:05:08;;;;;;;2.83;2.00;;;13.90;99.90;;;;;;5131336;28;20426;-59
2023/08/30 05:07:35;;;;;;;3.08;1.90;;;13.80;99.90;;;;;;5125537;28;20424;-59
2023/08/30 05:10:04;;;;;;;3.08;2.10;;;13.80;99.90;;;;;;5133616;28;20702;-55
2023/08/30 05:12:31;;;;;;;2.70;1.80;;;13.80;99.90;;;;;;5131273;28;20489;-59
2023/08/30 05:14:58;;;;;;;2.17;1.58;;;13.80;99.90;;;;;;5133053;28;20516;-59
2023/08/30 05:17:25;;;;;;;2.50;1.80;;;13.80;99.90;;;;;;5128440;28;20422;-59
2023/08/30 05:19:52;;;;;;;2.33;2.08;;;13.80;99.90;;;;;;5132992;28;20406;-58
2023/08/30 05:22:19;;;;;;;2.05;1.70;;;13.80;99.90;;;;;;5124039;28;20435;-59
2023/08/30 05:24:47;;;;;;;3.13;1.70;;;13.90;99.90;;;;;;5113266;28;20700;-58
2023/08/30 05:27:17;;;;;;;2.70;1.70;;;13.90;99.90;;;;;;5116661;28;20430;-59
2023/08/30 05:29:44;;;;;;;2.80;1.63;;;14.00;99.90;;;;;;5133596;28;20426;-59
2023/08/30 05:32:11;;;;;;;2.72;1.80;;;14.00;99.90;;;;;;5122363;28;20451;-59
2023/08/30 05:34:38;;;;;;;3.03;1.65;;;14.00;99.90;;;;;;5111526;28;20419;-58
2023/08/30 05:37:05;;;;;;;2.28;1.50;;;14.00;99.90;;;;;;5116551;28;20577;-59
2023/08/30 05:39:32;;;;;;;4.55;1.90;;;14.10;99.90;;;;;;5132265;28;20574;-58
2023/08/30 05:41:59;;;;;;;2.10;1.40;;;14.10;99.90;;;;;;5125751;28;20455;-58
2023/08/30 05:44:28;;;;;;;2.13;1.80;;;14.10;99.90;;;;;;5112218;28;20419;-58
2023/08/30 05:46:55;;;;;;;2.10;1.40;;;14.10;99.90;;;;;;5115959;28;20702;-58
2023/08/30 05:49:22;;;;;;;3.80;1.50;;;14.10;99.90;;;;;;5113458;28;20436;-58
2023/08/30 05:51:49;;;;;;;1.90;1.40;;;14.20;99.90;;;;;;5130952;28;20434;-58
2023/08/30 05:54:16;;;;;;;3.00;1.60;;;14.20;99.90;;;;;;5128287;28;20430;-59
2023/08/30 05:56:43;;;;;;;1.90;1.30;;;14.30;99.90;;;;;;5120230;28;20432;-59
2023/08/30 05:59:10;;;;;;;3.70;1.30;;;14.40;99.90;;;;;;5120393;28;20485;-59
2023/08/30 06:01:39;;;;;;;2.22;1.90;;;14.30;99.90;;;;;;5131016;27;20838;-59
2023/08/30 06:04:06;;;;;;;2.58;1.88;;;14.30;99.90;;;;;;5134347;27;20419;-59
2023/08/30 06:06:33;;;;;;;2.85;2.13;;;14.20;99.90;;;;;;5133250;27;20418;-59
2023/08/30 06:09:00;;;;;;;3.22;1.70;;;14.10;99.90;;;;;;5132846;27;20437;-59
2023/08/30 06:11:27;;;;;;;1.98;1.40;;;14.20;99.90;;;;;;5136738;27;20418;-59
2023/08/30 06:13:54;;;;;;;3.60;1.90;;;14.20;99.90;;;;;;5146364;27;20427;-57
2023/08/30 06:16:21;;;;;;;1.80;1.37;;;14.10;99.90;;;;;;5131317;27;20461;-57
2023/08/30 06:18:50;;;;;;;2.03;1.30;;;14.20;99.90;;;;;;5128623;27;20414;-54
2023/08/30 06:21:17;;;;;;;2.10;1.48;;;14.30;99.90;;;;;;5131213;27;20731;-58
2023/08/30 06:23:44;;;;;;;2.00;1.30;;;14.40;99.90;;;;;;5134523;27;20426;-57
2023/08/30 06:26:11;;;;;;;1.90;1.50;;;14.60;99.90;;;;;;5130022;27;20416;-57
2023/08/30 06:28:38;;;;;;;1.98;1.20;;;14.70;99.90;;;;;;5125747;27;20841;-58
2023/08/30 06:31:05;;;;;;;1.60;1.30;;;14.70;99.90;;;;;;5131751;27;20434;-58
2023/08/30 06:33:32;;;;;;;2.20;1.30;;;15.10;99.90;;;;;;5133624;27;20876;-58
2023/08/30 06:36:01;;;;;;;1.60;1.20;;;15.30;99.90;;;;;;5132265;27;20434;-58
2023/08/30 06:38:28;;;;;;;1.60;1.30;;;15.30;99.90;;;;;;5123016;27;20403;-58
2023/08/30 06:40:55;;;;;;;1.50;1.10;;;15.30;99.90;;;;;;5127416;27;20727;-57
2023/08/30 06:43:22;;;;;;;2.30;1.20;;;15.20;99.90;;;;;;5132657;27;20422;-57
2023/08/30 06:45:49;;;;;;;2.03;1.27;;;15.30;99.90;;;;;;5141389;27;20426;-56
2023/08/30 06:48:16;;;;;;;1.58;1.20;;;15.30;99.90;;;;;;5134619;27;20437;-56
2023/08/30 06:50:43;;;;;;;3.58;1.48;;;15.30;99.90;;;;;;5132485;27;20770;-58
2023/08/30 06:53:11;;;;;;;2.90;1.20;;;15.30;99.90;;;;;;5133149;27;20406;-58
2023/08/30 06:55:38;;;;;;;2.37;1.30;;;15.30;99.90;;;;;;5124591;27;20448;-56
2023/08/30 06:58:06;;;;;;;2.40;1.20;;;15.20;99.90;;;;;;5132026;27;20414;-59
2023/08/30 07:00:33;;;;;;;2.88;1.20;;;15.20;99.90;;;;;;5126489;27;20437;-58
2023/08/30 07:03:00;;;;;;;2.50;1.10;;;15.20;99.90;;;;;;5130994;27;20414;-58
2023/08/30 07:05:27;;;;;;;2.20;1.10;;;15.20;99.90;;;;;;5130829;27;20718;-55
2023/08/30 07:07:55;;;;;;;2.00;1.10;;;15.30;99.90;;;;;;5133534;27;20505;-56
2023/08/30 07:10:23;;;;;;;1.45;1.10;;;15.30;99.90;;;;;;5132020;27;20469;-55
2023/08/30 07:12:50;;;;;;;1.48;1.10;;;15.40;99.90;;;;;;5130737;27;20841;-56
2023/08/30 07:15:18;;;;;;;2.08;1.30;;;15.20;99.90;;;;;;5126700;27;20449;-55
2023/08/30 07:17:45;;;;;;;2.00;1.40;;;15.20;99.90;;;;;;5131637;27;20690;-55
2023/08/30 07:20:12;;;;;;;1.80;1.30;;;15.20;99.90;;;;;;5127778;27;20422;-54
2023/08/30 07:22:39;;;;;;;2.00;1.20;;;15.10;99.90;;;;;;5130119;27;20846;-56
2023/08/30 07:25:08;;;;;;;2.60;1.30;;;15.00;99.90;;;;;;5123368;27;20418;-56
2023/08/30 07:27:37;;;;;;;1.90;1.20;;;14.90;99.90;;;;;;5131569;27;20562;-64
2023/08/30 07:30:05;;;;;;;1.77;1.02;;;14.90;99.90;;;;;;5125834;27;20623;-60
2023/08/30 07:32:32;;;;;;;3.17;1.30;;;15.00;99.90;;;;;;5128507;27;20452;-60
2023/08/30 07:34:59;;;;;;;1.85;1.25;;;15.10;99.90;;;;;;5128796;27;20418;-60
2023/08/30 07:37:26;;;;;;;2.00;1.30;;;15.10;99.90;;;;;;5135284;27;20426;-60
2023/08/30 07:39:54;;;;;;;1.85;1.20;;;15.10;99.90;;;;;;5128054;27;20422;-60
2023/08/30 07:42:21;;;;;;;2.97;1.38;;;15.10;99.90;;;;;;5135152;27;20423;-61
2023/08/30 07:44:50;;;;;;;2.65;1.60;;;15.10;99.90;;;;;;5124741;27;20441;-61
2023/08/30 07:47:17;;;;;;;2.70;1.70;;;15.00;99.90;;;;;;5133288;27;20770;-61
2023/08/30 07:49:44;;;;;;;2.10;1.20;;;15.10;99.90;;;;;;5115394;27;20433;-59
2023/08/30 07:52:12;;;;;;;1.60;1.30;;;15.10;99.90;;;;;;5129458;27;20857;-59
2023/08/30 07:54:41;;;;;;;3.40;1.30;;;15.20;99.90;;;;;;5124164;27;20434;-60
2023/08/30 07:57:09;;;;;;;1.80;1.30;;;15.30;99.90;;;;;;5133048;27;20426;-60
2023/08/30 07:59:37;;;;;;;1.85;1.20;;;15.30;99.90;;;;;;5133458;27;20418;-60
2023/08/30 08:02:07;;;;;;;1.80;1.20;;;15.30;99.90;;;;;;5133016;27;20732;-60
2023/08/30 08:04:35;;;;;;;1.80;1.20;;;15.30;99.90;;;;;;5134638;27;20878;-61
2023/08/30 08:07:02;;;;;;;2.05;1.20;;;15.40;99.90;;;;;;5126897;27;20767;-61
2023/08/30 08:09:29;;;;;;;1.80;1.20;;;15.50;99.90;;;;;;5132739;27;20830;-59
2023/08/30 08:11:57;;;;;;;1.90;1.30;;;15.50;99.90;;;;;;5130329;27;20826;-61
2023/08/30 08:14:24;;;;;;;1.90;1.42;;;15.50;99.90;;;;;;5134108;27;20419;-59
2023/08/30 08:16:51;;;;;;;2.00;1.20;;;15.60;99.90;;;;;;5129609;27;20436;-60
2023/08/30 08:19:21;;;;;;;2.20;1.30;;;15.70;99.90;;;;;;5132204;27;20734;-60
2023/08/30 08:21:49;;;;;;;1.77;1.20;;;15.70;99.90;;;;;;5130976;27;20434;-60
2023/08/30 08:24:16;;;;;;;1.75;1.10;;;15.80;99.90;;;;;;5119934;27;20524;-60
2023/08/30 08:26:43;;;;;;;1.85;1.00;;;15.70;99.90;;;;;;5131208;27;20714;-61
2023/08/30 08:29:10;;;;;;;1.85;1.10;;;15.70;99.90;;;;;;5123820;27;20438;-60
2023/08/30 08:31:37;;;;;;;1.73;1.05;;;15.70;99.90;;;;;;5127228;27;20515;-59
2023/08/30 08:34:10;;;;;;;1.90;1.10;;;15.70;99.90;;;;;;5125766;27;20704;-60
2023/08/30 08:36:39;;;;;;;2.20;1.30;;;15.70;99.90;;;;;;5122113;27;20778;-60
2023/08/30 08:39:07;;;;;;;1.70;1.00;;;15.80;99.90;;;;;;5131334;27;20721;-60
2023/08/30 08:41:39;;;;;;;1.75;1.10;;;15.80;99.90;;;;;;5119351;27;20432;-59
2023/08/30 08:44:08;;;;;;;2.40;1.10;;;15.90;99.90;;;;;;5126507;27;20404;-59
2023/08/30 08:46:36;;;;;;;1.65;1.10;;;16.00;99.90;;;;;;5114560;27;20439;-60
2023/08/30 08:49:08;;;;;;;1.30;1.00;;;16.10;99.90;;;;;;5116743;28;20458;-58
2023/08/30 08:51:36;;;;;;;1.50;1.10;;;16.20;99.90;;;;;;5112696;27;20438;-59
2023/08/30 08:54:06;;;;;;;1.30;1.03;;;16.30;99.90;;;;;;5130512;27;20730;-59
2023/08/30 08:56:33;;;;;;;1.10;0.90;;;16.40;99.90;;;;;;5129327;27;20822;-58
2023/08/30 08:59:01;;;;;;;1.50;0.90;;;16.30;99.90;;;;;;5131004;28;20818;-56
2023/08/30 09:01:29;;;;;;;1.50;1.10;;;16.30;99.90;;;;;;5115805;28;20928;-58
2023/08/30 09:03:57;;;;;;;1.90;1.00;;;16.40;99.90;;;;;;5129042;27;20561;-59
2023/08/30 09:06:24;;;;;;;1.10;0.80;;;16.40;99.90;;;;;;5109037;28;20440;-58
2023/08/30 09:08:51;;;;;;;1.00;0.80;;;16.50;99.90;;;;;;5100108;28;20430;-57
2023/08/30 09:11:19;;;;;;;1.20;0.90;;;16.60;99.90;;;;;;5121202;28;20433;-56
2023/08/30 09:13:46;;;;;;;1.38;0.90;;;16.70;99.90;;;;;;5123120;27;20791;-55
2023/08/30 09:16:14;;;;;;;1.10;0.90;;;16.80;99.90;;;;;;5115821;27;20418;-50
2023/08/30 09:18:42;;;;;;;1.60;0.80;;;16.90;99.90;;;;;;5125212;27;20446;-55
2023/08/30 09:21:10;;;;;;;1.40;0.90;;;17.00;67.60;;;;;;5111824;28;20434;-50
2023/08/30 09:23:37;;;;;;;1.17;0.87;;;17.00;75.60;;;;;;5125140;27;20421;-53
2023/08/30 09:26:05;;;;;;;1.20;0.90;;;17.10;62.90;;;;;;5125429;28;20633;-49
2023/08/30 09:28:43;;;;;;;1.10;0.80;;;17.20;57.10;;;;;;5127216;28;20418;-50
2023/08/30 09:31:20;;;;;;;1.20;0.80;;;17.20;71.30;;;;;;5123320;28;20433;-51
2023/08/30 09:33:48;;;;;;;1.60;0.80;;;17.30;64.70;;;;;;5110046;28;20433;-50
2023/08/30 09:36:16;;;;;;;1.00;0.80;;;17.40;47.00;;;;;;5121370;27;20758;-47
2023/08/30 09:38:49;;;;;;;1.00;0.70;;;17.50;30.90;;;;;;5123675;27;20429;-51
2023/08/30 09:41:17;;;;;;;1.70;0.70;;;17.50;28.00;;;;;;5118014;27;20849;-52
2023/08/30 09:43:47;;;;;;;0.90;0.70;;;17.50;26.60;;;;;;5122334;27;20522;-51
2023/08/30 09:46:17;;;;;;;0.80;0.65;;;17.50;14.30;;;;;;5105156;27;20487;-51
2023/08/30 09:48:45;;;;;;;1.20;0.70;;;17.60;12.10;;;;;;5115359;27;20430;-51
2023/08/30 09:51:13;;;;;;;0.80;0.60;;;17.50;3.80;;;;;;5121046;27;20855;-49
2023/08/30 09:53:45;;;;;;;0.90;0.60;;;17.60;15.10;;;;;;5123257;27;20461;-48
2023/08/30 09:56:15;;;;;;;1.42;0.60;;;17.70;14.00;;;;;;5115511;27;20445;-47
2023/08/30 09:58:43;;;;;;;0.80;0.60;;;18.10;7.40;;;;;;5118045;27;20501;-50
2023/08/30 10:01:14;;;;;;;0.80;0.70;;;18.30;1.00;;;;;;5110323;27;20497;-52
2023/08/30 10:03:42;;;;;;;1.60;0.70;;;18.40;1.00;;;;;;5111174;27;20955;-49
2023/08/30 10:06:09;;;;;;;1.00;0.70;;;18.60;1.00;;;;;;5130617;27;20418;-52
2023/08/30 10:08:39;;;;;;;1.00;0.70;;;18.70;1.00;;;;;;5128129;27;20420;-52
2023/08/30 10:11:07;;;;;;;0.90;0.70;;;19.00;1.00;;;;;;5137974;27;20489;-48
2023/08/30 10:13:39;;;;;;;0.90;0.50;;;19.10;1.00;;;;;;5128853;27;20415;-51
2023/08/30 10:16:07;;;;;;;0.90;0.70;;;19.40;1.00;;;;;;5118082;27;20420;-51
2023/08/30 10:18:37;;;;;;;0.98;0.60;;;19.60;1.00;;;;;;5114692;27;20539;-49
2023/08/30 10:21:08;;;;;;;0.85;0.55;;;19.80;1.00;;;;;;5121836;27;20437;-50
2023/08/30 10:23:37;;;;;;;0.60;0.50;;;19.80;1.00;;;;;;5118018;27;20422;-48
2023/08/30 10:26:05;;;;;;;0.70;0.50;;;20.00;1.00;;;;;;5123300;27;20437;-51
2023/08/30 10:28:33;;;;;;;1.10;0.60;;;20.20;1.00;;;;;;5114242;27;20936;-50
2023/08/30 10:31:01;;;;;;;0.70;0.60;;;20.30;99.90;;;;;;5129743;27;20423;-52
2023/08/30 10:33:28;;;;;;;0.90;0.50;;;20.40;99.90;;;;;;5116564;27;20436;-47
2023/08/30 10:36:06;;;;;;;0.70;0.50;;;20.60;1.00;;;;;;5132411;27;20435;-53
2023/08/30 10:38:38;;;;;;;0.70;0.50;;;20.60;1.00;;;;;;5119869;27;20436;-51
2023/08/30 10:41:09;;;;;;;0.50;0.40;;;20.80;99.90;;;;;;5120354;27;20872;-49
2023/08/30 10:43:37;;;;;;;0.60;0.50;;;21.10;99.90;;;;;;5111234;27;20445;-50
2023/08/30 10:46:06;;;;;;;0.70;0.50;;;21.30;99.90;;;;;;5121330;27;20517;-48
2023/08/30 10:48:41;;;;;;;0.70;0.50;;;21.00;4.40;;;;;;5118838;27;20519;-50
2023/08/30 10:51:21;;;;;;;0.60;0.50;;;20.90;1.00;;;;;;5145033;27;20429;-49
2023/08/30 10:53:58;;;;;;;0.70;0.50;;;20.70;1.00;;;;;;5114042;27;20954;-47
2023/08/30 10:56:29;;;;;;;1.40;0.40;;;20.90;99.90;;;;;;5123153;27;20458;-50
2023/08/30 10:58:56;;;;;;;0.80;0.50;;;21.20;99.90;;;;;;5113102;27;20479;-51
2023/08/30 11:01:24;;;;;;;0.70;0.50;;;21.10;1.00;;;;;;5126432;27;20426;-48
2023/08/30 11:03:52;;;;;;;0.80;0.60;;;20.60;99.90;;;;;;5122929;27;21626;-50
2023/08/30 11:06:22;;;;;;;0.80;0.52;;;20.40;99.90;;;;;;5113576;27;20427;-53
2023/08/30 11:08:50;;;;;;;0.60;0.50;;;20.50;1.00;;;;;;5119769;27;20442;-48
2023/08/30 11:11:17;;;;;;;0.80;0.50;;;20.70;1.00;;;;;;5134266;27;20426;-49
2023/08/30 11:13:44;;;;;;;0.90;0.40;;;20.70;1.00;;;;;;5127949;27;20847;-50
2023/08/30 11:16:12;;;;;;;0.80;0.50;;;21.20;1.00;;;;;;5132616;27;20434;-50
2023/08/30 11:18:41;;;;;;;1.90;0.50;;;21.70;99.90;;;;;;5109544;27;20501;-48
2023/08/30 11:21:09;;;;;;;0.80;0.40;;;22.10;1.00;;;;;;5117023;27;20440;-52
2023/08/30 11:23:37;;;;;;;0.60;0.40;;;22.50;99.90;;;;;;5124444;27;20430;-51
2023/08/30 11:26:05;;;;;;;1.70;0.40;;;23.00;99.90;;;;;;5125042;27;20445;-55
2023/08/30 11:28:32;;;;;;;1.23;0.50;;;23.30;99.90;;;;;;5123097;27;20474;-49
2023/08/30 11:30:59;;;;;;;1.20;0.50;;;23.00;93.50;;;;;;5115476;27;20845;-49
2023/08/30 11:33:26;;;;;;;0.75;0.50;;;22.40;99.90;;;;;;5126361;27;20442;-54
2023/08/30 11:35:53;;;;;;;0.90;0.50;;;22.30;99.90;;;;;;5125849;27;20437;-50
2023/08/30 11:38:21;;;;;;;0.73;0.50;;;21.60;99.90;;;;;;5119627;27;20450;-51
2023/08/30 11:40:52;;;;;;;1.10;0.50;;;21.20;99.90;;;;;;5117094;27;20869;-50
2023/08/30 11:43:21;;;;;;;1.40;0.60;;;21.20;1.00;;;;;;5129959;27;20418;-51
2023/08/30 11:45:56;;;;;;;1.75;0.70;;;21.20;99.90;;;;;;5121416;27;20748;-53
2023/08/30 11:48:23;;;;;;;3.20;0.60;;;20.70;1.00;;;;;;5118989;27;20434;-48
2023/08/30 11:50:50;;;;;;;1.70;0.70;;;20.50;31.00;;;;;;5125275;27;20906;-48
2023/08/30 11:53:18;;;;;;;1.10;0.50;;;20.30;1.00;;;;;;5126720;27;20430;-50
2023/08/30 11:55:45;;;;;;;0.80;0.60;;;20.00;99.90;;;;;;5118488;27;20418;-50
2023/08/30 11:58:13;;;;;;;0.90;0.60;;;19.90;99.90;;;;;;5120814;27;20443;-48
2023/08/30 12:00:41;;;;;;;1.63;0.60;;;19.70;1.00;;;;;;5115536;27;20427;-50
2023/08/30 12:03:08;;;;;;;2.28;0.60;;;19.50;1.00;;;;;;5120110;27;20874;-48
2023/08/30 12:05:36;;;;;;;0.80;0.60;;;19.40;1.00;;;;;;5115614;27;20459;-51
2023/08/30 12:08:03;;;;;;;0.90;0.60;;;19.30;1.00;;;;;;5131352;27;20425;-51
2023/08/30 12:10:31;;;;;;;0.80;0.50;;;19.20;1.00;;;;;;5123663;27;20423;-52
2023/08/30 12:12:58;;;;;;;0.70;0.57;;;18.80;1.00;;;;;;5131339;27;20461;-50
2023/08/30 12:15:27;;;;;;;0.70;0.50;;;18.60;1.00;;;;;;5124049;27;20859;-53
2023/08/30 12:17:56;;;;;;;0.80;0.60;;;18.50;1.00;;;;;;5118427;27;20452;-46
2023/08/30 12:20:23;;;;;;;0.90;0.60;;;18.30;1.00;;;;;;5123090;27;20442;-51
2023/08/30 12:22:51;;;;;;;0.80;0.60;;;18.10;1.00;;;;;;5131592;27;20837;-53
2023/08/30 12:25:19;;;;;;;1.30;0.80;;;18.10;1.00;;;;;;5125990;27;20502;-51
2023/08/30 12:27:47;;;;;;;0.80;0.70;;;18.00;1.00;;;;;;5125752;27;20830;-50
2023/08/30 12:30:18;;;;;;;0.80;0.70;;;17.90;1.00;;;;;;5116390;27;20481;-52
2023/08/30 12:32:47;;;;;;;0.90;0.70;;;17.70;14.10;;;;;;5120878;27;20466;-48
2023/08/30 12:35:14;;;;;;;1.20;0.80;;;17.50;94.80;;;;;;5124177;27;20421;-50
2023/08/30 12:37:41;;;;;;;1.10;0.80;;;17.50;99.90;;;;;;5110197;27;20843;-52
2023/08/30 12:40:09;;;;;;;1.00;0.80;;;17.40;99.90;;;;;;5123449;27;20433;-51
2023/08/30 12:42:36;;;;;;;1.25;0.80;;;17.40;99.90;;;;;;5124228;27;20439;-54
2023/08/30 12:45:04;;;;;;;1.80;0.90;;;17.30;99.90;;;;;;5121581;27;20431;-49
2023/08/30 12:47:31;;;;;;;1.00;0.80;;;17.30;99.90;;;;;;5122150;27;20410;-54
2023/08/30 12:49:59;;;;;;;1.10;0.90;;;17.30;99.90;;;;;;5115773;27;20850;-53
2023/08/30 12:52:26;;;;;;;1.58;0.80;;;17.40;99.90;;;;;;5124622;27;20427;-54